This is the latest recevied weather packets stored in our database for station/object PY2VE-13. If no packets are shown the sender has not sent any weather packets the latest 10 day(s).
| Time | Temp. | Humidity | Pressure | Rain* | Wind** | Luminosity | Snow |
|---|---|---|---|---|---|---|---|
| 1788269200 | 24.44° C | 68% | 1020 hPa | - | - | - | - |
| 1788268300 | 24.44° C | 65% | 1020.1 hPa | - | - | - | - |
| 1788267400 | 25° C | 64% | 1020 hPa | - | - | - | - |
| 1788266500 | 24.44° C | 65% | 1020.1 hPa | - | - | - | - |
| 1788265602 | 25° C | 65% | 1020.1 hPa | - | - | - | - |
| 1788264700 | 24.44° C | 64% | 1020.2 hPa | - | - | - | - |
| 1788263800 | 24.44° C | 64% | 1020.1 hPa | - | - | - | - |
| 1788262032 | 24.44° C | 65% | 1019.7 hPa | - | - | - | - |
| 1788261132 | 23.89° C | 66% | 1019.7 hPa | - | - | - | - |
| 1788260232 | 24.44° C | 66% | 1018.9 hPa | - | - | - | - |
| 1788259332 | 24.44° C | 66% | 1018.8 hPa | - | - | - | - |
| 1788258432 | 23.89° C | 69% | 1019.3 hPa | - | - | - | - |
| 1788257532 | 22.78° C | 73% | 1019.6 hPa | - | - | - | - |
| 1788256632 | 23.89° C | 67% | 1018.3 hPa | - | - | - | - |
| 1788255732 | 23.89° C | 68% | 1017.7 hPa | - | - | - | - |
| 1788254832 | 24.44° C | 66% | 1017.4 hPa | - | - | - | - |
| 1788253932 | 24.44° C | 66% | 1017.6 hPa | - | - | - | - |
| 1788253032 | 23.89° C | 68% | 1017.6 hPa | - | - | - | - |
| 1788252132 | 24.44° C | 65% | 1018 hPa | - | - | - | - |
| 1788251232 | 23.33° C | 73% | 1017.9 hPa | - | - | - | - |
| 1788250332 | 23.33° C | 74% | 1019.2 hPa | - | - | - | - |
| 1788249432 | 24.44° C | 67% | 1018 hPa | - | - | - | - |
| 1788248532 | 22.78° C | 75% | 1018.8 hPa | - | - | - | - |
| 1788247632 | 22.78° C | 76% | 1018.3 hPa | - | - | - | - |
| 1788246732 | 21.67° C | 83% | 1018.5 hPa | - | - | - | - |
* Rain since midnight (hover to see other rain measurements)
** Current wind speed in m/s (hover to see current wind gust speed)